PWSweather.com
Personal Weather Stations
Station Observations

MakarauRodneyNZ

Lat: -36.52421, Lon: 174.47572

Elevation: 606

Station Type: Davis VP2

http://kaiparaweather.dynu.net/index.php

High Low Average
Temperature 69.6°F20.9°C 61.6°F16.4°C 65.3°F18.5°C
Dew Point 58.0°F14.4°C 52.2°F11.2°C 54.8°F12.7°C
Winds 13.8 mph 22.2 kmh Calm Calm 4.0 mph SSW6.4 kmh SSW
Wind Gusts 16.1 mph25.9 kmh -- 6.0 mph9.7 kmh
Humidity 74% 61% 69%
Pressure 30.18 in1022.0 mb 30.10 in1019.3 mb -
Precipitation 0.01 in0.3 mm - -
Hour Temp Dew Point Humidity Winds Wind Gusts Pressure Precip Precip Rate Daily Precip Total
12:00 AM 67.4°F19.7°C 65.3°F18.5°C 93% 11.5 mph WSW18.5 kmh WSW 11.5 mph18.5 kmh 30.04 in1017.3 mb - 0.00 in0.0 mm 0.00 in0.0 mm
12:10 AM 67.0°F19.4°C 64.9°F18.3°C 93% 9.2 mph WSW14.8 kmh WSW 11.5 mph18.5 kmh 30.04 in1017.3 mb - 0.00 in0.0 mm 0.00 in0.0 mm
12:20 AM 67.0°F19.4°C 64.9°F18.3°C 93% 9.2 mph WSW14.8 kmh WSW 12.7 mph20.4 kmh 30.04 in1017.3 mb - 0.00 in0.0 mm 0.00 in0.0 mm
12:30 AM 67.1°F19.5°C 64.7°F18.2°C 92% 5.8 mph WSW9.3 kmh WSW 10.4 mph16.7 kmh 30.03 in1016.9 mb - 0.00 in0.0 mm 0.00 in0.0 mm
12:40 AM 67.1°F19.5°C 64.7°F18.2°C 92% 6.9 mph WSW11.1 kmh WSW 11.5 mph18.5 kmh 30.04 in1017.3 mb - 0.00 in0.0 mm 0.00 in0.0 mm
12:50 AM 67.1°F19.5°C 64.7°F18.2°C 92% 9.2 mph WSW14.8 kmh WSW 11.5 mph18.5 kmh 30.03 in1016.9 mb - 0.00 in0.0 mm 0.00 in0.0 mm
01:00 AM 67.1°F19.5°C 64.7°F18.2°C 92% 9.2 mph W14.8 kmh W 12.7 mph20.4 kmh 30.04 in1017.3 mb - 0.00 in0.0 mm 0.00 in0.0 mm
01:10 AM 67.1°F19.5°C 64.7°F18.2°C 92% 8.1 mph WSW13.0 kmh WSW 15.0 mph24.1 kmh 30.03 in1016.9 mb - 0.00 in0.0 mm 0.00 in0.0 mm
01:20 AM 67.1°F19.5°C 64.7°F18.2°C 92% 6.9 mph WSW11.1 kmh WSW 10.4 mph16.7 kmh 30.03 in1016.9 mb - 0.00 in0.0 mm 0.00 in0.0 mm
01:30 AM 66.9°F19.4°C 64.5°F18.1°C 92% 8.1 mph SW13.0 kmh SW 11.5 mph18.5 kmh 30.03 in1016.9 mb - 0.00 in0.0 mm 0.00 in0.0 mm
01:40 AM 65.3°F18.5°C 63.5°F17.5°C 94% 6.9 mph SW11.1 kmh SW 11.5 mph18.5 kmh 30.03 in1016.9 mb - 0.01 in0.3 mm 0.01 in0.3 mm
01:50 AM 64.6°F18.1°C 63.1°F17.3°C 95% 9.2 mph SW14.8 kmh SW 10.4 mph16.7 kmh 30.04 in1017.3 mb - 0.00 in0.0 mm 0.01 in0.3 mm
02:00 AM 64.4°F18.0°C 63.2°F17.3°C 96% 2.3 mph SSW3.7 kmh SSW 3.5 mph5.6 kmh 30.04 in1017.3 mb - 0.00 in0.0 mm 0.01 in0.3 mm
02:10 AM 64.2°F17.9°C 63.0°F17.2°C 96% 2.3 mph SW3.7 kmh SW 3.5 mph5.6 kmh 30.04 in1017.3 mb - 0.00 in0.0 mm 0.01 in0.3 mm
02:20 AM 64.2°F17.9°C 63.0°F17.2°C 96% Calm Calm -- 30.03 in1016.9 mb - 0.00 in0.0 mm 0.01 in0.3 mm
02:30 AM 64.3°F17.9°C 63.1°F17.3°C 96% Calm Calm -- 30.03 in1016.9 mb - 0.00 in0.0 mm 0.01 in0.3 mm
02:40 AM 64.4°F18.0°C 63.2°F17.3°C 96% Calm Calm -- 30.03 in1016.9 mb - 0.00 in0.0 mm 0.01 in0.3 mm
02:50 AM 64.5°F18.1°C 63.3°F17.4°C 96% Calm Calm -- 30.04 in1017.3 mb - 0.00 in0.0 mm 0.01 in0.3 mm
03:00 AM 64.5°F18.1°C 63.4°F17.4°C 96% Calm Calm -- 30.03 in1016.9 mb - 0.00 in0.0 mm 0.01 in0.3 mm
03:10 AM 64.7°F18.2°C 63.5°F17.5°C 96% Calm Calm -- 30.03 in1016.9 mb - 0.00 in0.0 mm 0.01 in0.3 mm
03:20 AM 64.6°F18.1°C 63.5°F17.5°C 96% Calm Calm -- 30.03 in1016.9 mb - 0.00 in0.0 mm 0.01 in0.3 mm
03:30 AM 64.4°F18.0°C 63.3°F17.4°C 96% Calm Calm -- 30.03 in1016.9 mb - 0.00 in0.0 mm 0.01 in0.3 mm
03:40 AM 64.2°F17.9°C 63.0°F17.2°C 96% 3.5 mph SSW5.6 kmh SSW 8.1 mph13.0 kmh 30.03 in1016.9 mb - 0.00 in0.0 mm 0.01 in0.3 mm
03:50 AM 64.3°F17.9°C 62.8°F17.1°C 95% 8.1 mph SSW13.0 kmh SSW 11.5 mph18.5 kmh 30.03 in1016.9 mb - 0.00 in0.0 mm 0.01 in0.3 mm
04:00 AM 64.4°F18.0°C 62.3°F16.8°C 93% 8.1 mph SSW13.0 kmh SSW 9.2 mph14.8 kmh 30.04 in1017.3 mb - 0.00 in0.0 mm 0.01 in0.3 mm
04:10 AM 64.1°F17.8°C 61.4°F16.3°C 91% 8.1 mph SSW13.0 kmh SSW 11.5 mph18.5 kmh 30.04 in1017.3 mb - 0.00 in0.0 mm 0.01 in0.3 mm
04:20 AM 64.0°F17.8°C 61.3°F16.3°C 91% 8.1 mph SSW13.0 kmh SSW 10.4 mph16.7 kmh 30.04 in1017.3 mb - 0.00 in0.0 mm 0.01 in0.3 mm
04:30 AM 63.5°F17.5°C 60.8°F16.0°C 91% 6.9 mph SSW11.1 kmh SSW 9.2 mph14.8 kmh 30.04 in1017.3 mb - 0.00 in0.0 mm 0.01 in0.3 mm
04:40 AM 63.4°F17.4°C 60.4°F15.8°C 90% 5.8 mph SSW9.3 kmh SSW 8.1 mph13.0 kmh 30.04 in1017.3 mb - 0.00 in0.0 mm 0.01 in0.3 mm
04:50 AM 63.2°F17.3°C 60.2°F15.7°C 90% 6.9 mph SSW11.1 kmh SSW 9.2 mph14.8 kmh 30.04 in1017.3 mb - 0.00 in0.0 mm 0.01 in0.3 mm
05:00 AM 63.3°F17.4°C 59.7°F15.4°C 88% 9.2 mph SSW14.8 kmh SSW 11.5 mph18.5 kmh 30.05 in1017.6 mb - 0.00 in0.0 mm 0.01 in0.3 mm
05:10 AM 63.3°F17.4°C 59.7°F15.4°C 88% 4.6 mph SSW7.4 kmh SSW 5.8 mph9.3 kmh 30.05 in1017.6 mb - 0.00 in0.0 mm 0.01 in0.3 mm
05:20 AM 63.3°F17.4°C 59.0°F15.0°C 86% 6.9 mph SSW11.1 kmh SSW 9.2 mph14.8 kmh 30.05 in1017.6 mb - 0.00 in0.0 mm 0.01 in0.3 mm
05:30 AM 63.2°F17.3°C 59.0°F15.0°C 86% 5.8 mph SSW9.3 kmh SSW 8.1 mph13.0 kmh 30.06 in1017.9 mb - 0.00 in0.0 mm 0.01 in0.3 mm
05:40 AM 62.9°F17.2°C 58.6°F14.8°C 86% 6.9 mph SSW11.1 kmh SSW 9.2 mph14.8 kmh 30.06 in1017.9 mb - 0.00 in0.0 mm 0.01 in0.3 mm
05:50 AM 62.1°F16.7°C 57.8°F14.3°C 86% 4.6 mph SSW7.4 kmh SSW 4.6 mph7.4 kmh 30.06 in1017.9 mb - 0.00 in0.0 mm 0.01 in0.3 mm
06:00 AM 61.9°F16.6°C 57.3°F14.1°C 85% 4.6 mph SSW7.4 kmh SSW 5.8 mph9.3 kmh 30.06 in1017.9 mb - 0.00 in0.0 mm 0.01 in0.3 mm
06:10 AM 62.0°F16.7°C 57.5°F14.2°C 85% 4.6 mph SSW7.4 kmh SSW 5.8 mph9.3 kmh 30.06 in1017.9 mb - 0.00 in0.0 mm 0.01 in0.3 mm
06:20 AM 62.2°F16.8°C 57.6°F14.2°C 85% 5.8 mph SSW9.3 kmh SSW 8.1 mph13.0 kmh 30.07 in1018.3 mb - 0.00 in0.0 mm 0.01 in0.3 mm
06:30 AM 61.8°F16.6°C 57.6°F14.2°C 86% 2.3 mph SSW3.7 kmh SSW 3.5 mph5.6 kmh 30.07 in1018.3 mb - 0.00 in0.0 mm 0.01 in0.3 mm
06:40 AM 61.7°F16.5°C 57.5°F14.2°C 86% 5.8 mph SSW9.3 kmh SSW 9.2 mph14.8 kmh 30.07 in1018.3 mb - 0.00 in0.0 mm 0.01 in0.3 mm
06:50 AM 61.7°F16.5°C 57.2°F14.0°C 85% 6.9 mph SSW11.1 kmh SSW 8.1 mph13.0 kmh 30.07 in1018.3 mb - 0.00 in0.0 mm 0.01 in0.3 mm
07:00 AM 61.4°F16.3°C 56.8°F13.8°C 85% 4.6 mph SSW7.4 kmh SSW 5.8 mph9.3 kmh 30.08 in1018.6 mb - 0.00 in0.0 mm 0.01 in0.3 mm
07:10 AM 61.5°F16.4°C 56.9°F13.8°C 85% 5.8 mph SSW9.3 kmh SSW 6.9 mph11.1 kmh 30.08 in1018.6 mb - 0.00 in0.0 mm 0.01 in0.3 mm
07:20 AM 61.9°F16.6°C 56.7°F13.7°C 83% 6.9 mph SSW11.1 kmh SSW 9.2 mph14.8 kmh 30.08 in1018.6 mb - 0.00 in0.0 mm 0.01 in0.3 mm
07:30 AM 62.1°F16.7°C 56.5°F13.6°C 82% 8.1 mph SSW13.0 kmh SSW 8.1 mph13.0 kmh 30.09 in1019.0 mb - 0.00 in0.0 mm 0.01 in0.3 mm
07:40 AM 62.0°F16.7°C 56.4°F13.6°C 82% 5.8 mph SSW9.3 kmh SSW 9.2 mph14.8 kmh 30.09 in1019.0 mb - 0.00 in0.0 mm 0.01 in0.3 mm
07:50 AM 62.2°F16.8°C 56.3°F13.5°C 81% 5.8 mph SSW9.3 kmh SSW 9.2 mph14.8 kmh 30.09 in1019.0 mb - 0.00 in0.0 mm 0.01 in0.3 mm
08:00 AM 62.6°F17.0°C 55.9°F13.3°C 79% 5.8 mph SSW9.3 kmh SSW 8.1 mph13.0 kmh 30.10 in1019.3 mb - 0.00 in0.0 mm 0.01 in0.3 mm
08:10 AM 62.8°F17.1°C 56.6°F13.7°C 80% 2.3 mph SSW3.7 kmh SSW 3.5 mph5.6 kmh 30.10 in1019.3 mb - 0.00 in0.0 mm 0.01 in0.3 mm
08:20 AM 63.3°F17.4°C 56.4°F13.6°C 78% 4.6 mph SSW7.4 kmh SSW 5.8 mph9.3 kmh 30.11 in1019.6 mb - 0.00 in0.0 mm 0.01 in0.3 mm
08:30 AM 63.8°F17.7°C 57.1°F13.9°C 79% 4.6 mph S7.4 kmh S 4.6 mph7.4 kmh 30.11 in1019.6 mb - 0.00 in0.0 mm 0.01 in0.3 mm
08:40 AM 64.2°F17.9°C 57.5°F14.2°C 79% 3.5 mph SSW5.6 kmh SSW 4.6 mph7.4 kmh 30.11 in1019.6 mb - 0.00 in0.0 mm 0.01 in0.3 mm
08:50 AM 64.8°F18.2°C 58.1°F14.5°C 79% 2.3 mph SSW3.7 kmh SSW 4.6 mph7.4 kmh 30.12 in1020.0 mb - 0.00 in0.0 mm 0.01 in0.3 mm
09:00 AM 65.3°F18.5°C 58.2°F14.6°C 78% 5.8 mph S9.3 kmh S 10.4 mph16.7 kmh 30.12 in1020.0 mb - 0.00 in0.0 mm 0.01 in0.3 mm
09:10 AM 65.5°F18.6°C 57.3°F14.1°C 75% 9.2 mph SSW14.8 kmh SSW 12.7 mph20.4 kmh 30.12 in1020.0 mb - 0.00 in0.0 mm 0.01 in0.3 mm
09:20 AM 65.5°F18.6°C 57.4°F14.1°C 75% 4.6 mph SSW7.4 kmh SSW 8.1 mph13.0 kmh 30.13 in1020.3 mb - 0.00 in0.0 mm 0.01 in0.3 mm
09:30 AM 65.7°F18.7°C 56.8°F13.8°C 73% 5.8 mph SSW9.3 kmh SSW 11.5 mph18.5 kmh 30.13 in1020.3 mb - 0.00 in0.0 mm 0.01 in0.3 mm
09:40 AM 66.0°F18.9°C 56.7°F13.7°C 72% 9.2 mph S14.8 kmh S 10.4 mph16.7 kmh 30.13 in1020.3 mb - 0.00 in0.0 mm 0.01 in0.3 mm
09:50 AM 66.1°F18.9°C 56.0°F13.3°C 70% 6.9 mph SSE11.1 kmh SSE 9.2 mph14.8 kmh 30.13 in1020.3 mb - 0.00 in0.0 mm 0.01 in0.3 mm
10:00 AM 66.5°F19.2°C 55.6°F13.1°C 68% 6.9 mph SSW11.1 kmh SSW 10.4 mph16.7 kmh 30.13 in1020.3 mb - 0.00 in0.0 mm 0.01 in0.3 mm
10:10 AM 66.4°F19.1°C 55.5°F13.1°C 68% 9.2 mph S14.8 kmh S 11.5 mph18.5 kmh 30.13 in1020.3 mb - 0.00 in0.0 mm 0.01 in0.3 mm
10:20 AM 66.6°F19.2°C 54.9°F12.7°C 66% 5.8 mph SSW9.3 kmh SSW 11.5 mph18.5 kmh 30.13 in1020.3 mb - 0.00 in0.0 mm 0.01 in0.3 mm
10:30 AM 67.4°F19.7°C 56.0°F13.3°C 67% 8.1 mph SSW13.0 kmh SSW 11.5 mph18.5 kmh 30.13 in1020.3 mb - 0.00 in0.0 mm 0.01 in0.3 mm
10:40 AM 66.9°F19.4°C 56.0°F13.3°C 68% 11.5 mph S18.5 kmh S 12.7 mph20.4 kmh 30.13 in1020.3 mb - 0.00 in0.0 mm 0.01 in0.3 mm
10:50 AM 67.5°F19.7°C 58.1°F14.5°C 72% 5.8 mph SW9.3 kmh SW 8.1 mph13.0 kmh 30.13 in1020.3 mb - 0.00 in0.0 mm 0.01 in0.3 mm
11:00 AM 68.1°F20.1°C 56.3°F13.5°C 66% 4.6 mph SSW7.4 kmh SSW 10.4 mph16.7 kmh 30.13 in1020.3 mb - 0.00 in0.0 mm 0.01 in0.3 mm
11:10 AM 67.9°F19.9°C 56.5°F13.6°C 67% 12.7 mph S20.4 kmh S 15.0 mph24.1 kmh 30.13 in1020.3 mb - 0.00 in0.0 mm 0.01 in0.3 mm
11:20 AM 67.7°F19.8°C 56.3°F13.5°C 67% 9.2 mph SSW14.8 kmh SSW 11.5 mph18.5 kmh 30.13 in1020.3 mb - 0.00 in0.0 mm 0.01 in0.3 mm
11:30 AM 68.0°F20.0°C 56.6°F13.7°C 67% 11.5 mph SSW18.5 kmh SSW 15.0 mph24.1 kmh 30.12 in1020.0 mb - 0.00 in0.0 mm 0.01 in0.3 mm
11:40 AM 68.2°F20.1°C 56.4°F13.6°C 66% 6.9 mph SSW11.1 kmh SSW 11.5 mph18.5 kmh 30.13 in1020.3 mb - 0.00 in0.0 mm 0.01 in0.3 mm
11:50 AM 68.4°F20.2°C 55.7°F13.2°C 64% 4.6 mph S7.4 kmh S 11.5 mph18.5 kmh 30.13 in1020.3 mb - 0.00 in0.0 mm 0.01 in0.3 mm
12:00 PM 68.7°F20.4°C 54.7°F12.6°C 61% 8.1 mph SSW13.0 kmh SSW 10.4 mph16.7 kmh 30.13 in1020.3 mb - 0.00 in0.0 mm 0.01 in0.3 mm
12:10 PM 68.8°F20.4°C 57.4°F14.1°C 67% 5.8 mph SW9.3 kmh SW 5.8 mph9.3 kmh 30.12 in1020.0 mb - 0.00 in0.0 mm 0.01 in0.3 mm
12:20 PM 69.2°F20.7°C 57.0°F13.9°C 65% 4.6 mph SW7.4 kmh SW 10.4 mph16.7 kmh 30.12 in1020.0 mb - 0.00 in0.0 mm 0.01 in0.3 mm
12:30 PM 69.2°F20.7°C 55.2°F12.9°C 61% 13.8 mph S22.2 kmh S 16.1 mph25.9 kmh 30.12 in1020.0 mb - 0.00 in0.0 mm 0.01 in0.3 mm
12:40 PM 68.6°F20.3°C 57.2°F14.0°C 67% 5.8 mph SW9.3 kmh SW 5.8 mph9.3 kmh 30.12 in1020.0 mb - 0.00 in0.0 mm 0.01 in0.3 mm
12:50 PM 68.9°F20.5°C 55.8°F13.2°C 63% 9.2 mph SSW14.8 kmh SSW 11.5 mph18.5 kmh 30.12 in1020.0 mb - 0.00 in0.0 mm 0.01 in0.3 mm
01:00 PM 68.5°F20.3°C 55.8°F13.2°C 64% 5.8 mph SW9.3 kmh SW 4.6 mph7.4 kmh 30.11 in1019.6 mb - 0.00 in0.0 mm 0.01 in0.3 mm
01:10 PM 69.2°F20.7°C 57.8°F14.3°C 67% 6.9 mph SW11.1 kmh SW 10.4 mph16.7 kmh 30.11 in1019.6 mb - 0.00 in0.0 mm 0.01 in0.3 mm
01:20 PM 69.1°F20.6°C 57.3°F14.1°C 66% 8.1 mph SSW13.0 kmh SSW 11.5 mph18.5 kmh 30.11 in1019.6 mb - 0.00 in0.0 mm 0.01 in0.3 mm
01:30 PM 69.0°F20.6°C 55.0°F12.8°C 61% 10.4 mph SSW16.7 kmh SSW 13.8 mph22.2 kmh 30.11 in1019.6 mb - 0.00 in0.0 mm 0.01 in0.3 mm
01:40 PM 69.3°F20.7°C 56.1°F13.4°C 63% 5.8 mph SW9.3 kmh SW 9.2 mph14.8 kmh 30.11 in1019.6 mb - 0.00 in0.0 mm 0.01 in0.3 mm
01:50 PM 69.6°F20.9°C 56.9°F13.8°C 64% 8.1 mph SSW13.0 kmh SSW 11.5 mph18.5 kmh 30.11 in1019.6 mb - 0.00 in0.0 mm 0.01 in0.3 mm
02:00 PM 69.4°F20.8°C 55.8°F13.2°C 62% 10.4 mph SSW16.7 kmh SSW 16.1 mph25.9 kmh 30.11 in1019.6 mb - 0.00 in0.0 mm 0.01 in0.3 mm
02:10 PM 69.4°F20.8°C 58.0°F14.4°C 67% 8.1 mph S13.0 kmh S 15.0 mph24.1 kmh 30.11 in1019.6 mb - 0.00 in0.0 mm 0.01 in0.3 mm
02:20 PM 68.2°F20.1°C 55.6°F13.1°C 64% 10.4 mph SSW16.7 kmh SSW 16.1 mph25.9 kmh 30.11 in1019.6 mb - 0.00 in0.0 mm 0.01 in0.3 mm
02:30 PM 68.9°F20.5°C 55.8°F13.2°C 63% 8.1 mph SW13.0 kmh SW 10.4 mph16.7 kmh 30.11 in1019.6 mb - 0.00 in0.0 mm 0.01 in0.3 mm
02:40 PM 69.5°F20.8°C 55.9°F13.3°C 62% 6.9 mph SW11.1 kmh SW 9.2 mph14.8 kmh 30.11 in1019.6 mb - 0.00 in0.0 mm 0.01 in0.3 mm
02:50 PM 69.0°F20.6°C 55.0°F12.8°C 61% 8.1 mph SW13.0 kmh SW 11.5 mph18.5 kmh 30.11 in1019.6 mb - 0.00 in0.0 mm 0.01 in0.3 mm
03:00 PM 68.7°F20.4°C 56.4°F13.6°C 65% 9.2 mph SW14.8 kmh SW 11.5 mph18.5 kmh 30.11 in1019.6 mb - 0.00 in0.0 mm 0.01 in0.3 mm
03:10 PM 69.0°F20.6°C 55.4°F13.0°C 62% 10.4 mph SW16.7 kmh SW 11.5 mph18.5 kmh 30.11 in1019.6 mb - 0.00 in0.0 mm 0.01 in0.3 mm
03:20 PM 68.4°F20.2°C 55.7°F13.2°C 64% 9.2 mph S14.8 kmh S 11.5 mph18.5 kmh 30.10 in1019.3 mb - 0.00 in0.0 mm 0.01 in0.3 mm
03:30 PM 68.6°F20.3°C 56.4°F13.6°C 65% 6.9 mph S11.1 kmh S 9.2 mph14.8 kmh 30.10 in1019.3 mb - 0.00 in0.0 mm 0.01 in0.3 mm
03:40 PM 68.1°F20.1°C 56.7°F13.7°C 67% 6.9 mph SW11.1 kmh SW 12.7 mph20.4 kmh 30.10 in1019.3 mb - 0.00 in0.0 mm 0.01 in0.3 mm
03:50 PM 67.9°F19.9°C 56.9°F13.8°C 68% 8.1 mph SSW13.0 kmh SSW 10.4 mph16.7 kmh 30.10 in1019.3 mb - 0.00 in0.0 mm 0.01 in0.3 mm
04:00 PM 67.9°F19.9°C 55.7°F13.2°C 65% 9.2 mph S14.8 kmh S 11.5 mph18.5 kmh 30.10 in1019.3 mb - 0.00 in0.0 mm 0.01 in0.3 mm
04:10 PM 68.6°F20.3°C 56.4°F13.6°C 65% 6.9 mph SSW11.1 kmh SSW 11.5 mph18.5 kmh 30.10 in1019.3 mb - 0.00 in0.0 mm 0.01 in0.3 mm
04:20 PM 68.5°F20.3°C 56.7°F13.7°C 66% 8.1 mph SSW13.0 kmh SSW 12.7 mph20.4 kmh 30.10 in1019.3 mb - 0.00 in0.0 mm 0.01 in0.3 mm
04:30 PM 67.2°F19.6°C 56.2°F13.4°C 68% 5.8 mph SSW9.3 kmh SSW 9.2 mph14.8 kmh 30.11 in1019.6 mb - 0.00 in0.0 mm 0.01 in0.3 mm
04:40 PM 65.7°F18.7°C 56.0°F13.3°C 71% 1.2 mph SSW1.9 kmh SSW 3.5 mph5.6 kmh 30.11 in1019.6 mb - 0.00 in0.0 mm 0.01 in0.3 mm
04:50 PM 65.2°F18.4°C 55.9°F13.3°C 72% 4.6 mph SSW7.4 kmh SSW 9.2 mph14.8 kmh 30.11 in1019.6 mb - 0.00 in0.0 mm 0.01 in0.3 mm
05:00 PM 65.2°F18.4°C 55.6°F13.1°C 71% 5.8 mph SW9.3 kmh SW 10.4 mph16.7 kmh 30.11 in1019.6 mb - 0.00 in0.0 mm 0.01 in0.3 mm
05:10 PM 65.4°F18.6°C 55.4°F13.0°C 70% 1.2 mph S1.9 kmh S 5.8 mph9.3 kmh 30.11 in1019.6 mb - 0.00 in0.0 mm 0.01 in0.3 mm
05:20 PM 65.5°F18.6°C 55.5°F13.1°C 70% 3.5 mph SSW5.6 kmh SSW 3.5 mph5.6 kmh 30.11 in1019.6 mb - 0.00 in0.0 mm 0.01 in0.3 mm
05:30 PM 65.5°F18.6°C 55.5°F13.1°C 70% 3.5 mph SSW5.6 kmh SSW 5.8 mph9.3 kmh 30.11 in1019.6 mb - 0.00 in0.0 mm 0.01 in0.3 mm
05:40 PM 65.4°F18.6°C 54.9°F12.7°C 69% 1.2 mph S1.9 kmh S 3.5 mph5.6 kmh 30.12 in1020.0 mb - 0.00 in0.0 mm 0.01 in0.3 mm
05:50 PM 65.2°F18.4°C 56.0°F13.3°C 72% 2.3 mph SSW3.7 kmh SSW 8.1 mph13.0 kmh 30.12 in1020.0 mb - 0.00 in0.0 mm 0.01 in0.3 mm
06:00 PM 64.8°F18.2°C 54.7°F12.6°C 70% 6.9 mph S11.1 kmh S 9.2 mph14.8 kmh 30.12 in1020.0 mb - 0.00 in0.0 mm 0.01 in0.3 mm
06:10 PM 64.2°F17.9°C 54.6°F12.6°C 71% 3.5 mph S5.6 kmh S 3.5 mph5.6 kmh 30.13 in1020.3 mb - 0.00 in0.0 mm 0.01 in0.3 mm
06:20 PM 63.2°F17.3°C 54.4°F12.4°C 73% 3.5 mph SSW5.6 kmh SSW 4.6 mph7.4 kmh 30.13 in1020.3 mb - 0.00 in0.0 mm 0.01 in0.3 mm
06:30 PM 63.2°F17.3°C 54.8°F12.7°C 74% Calm Calm 3.5 mph5.6 kmh 30.13 in1020.3 mb - 0.00 in0.0 mm 0.01 in0.3 mm
06:40 PM 63.7°F17.6°C 54.1°F12.3°C 71% 3.5 mph SSW5.6 kmh SSW 3.5 mph5.6 kmh 30.13 in1020.3 mb - 0.00 in0.0 mm 0.01 in0.3 mm
06:50 PM 63.5°F17.5°C 54.3°F12.4°C 72% Calm Calm -- 30.14 in1020.7 mb - 0.00 in0.0 mm 0.01 in0.3 mm
07:00 PM 63.3°F17.4°C 54.8°F12.7°C 74% Calm Calm -- 30.14 in1020.7 mb - 0.00 in0.0 mm 0.01 in0.3 mm
07:10 PM 63.3°F17.4°C 54.5°F12.5°C 73% Calm Calm -- 30.14 in1020.7 mb - 0.00 in0.0 mm 0.01 in0.3 mm
07:20 PM 63.2°F17.3°C 54.0°F12.2°C 72% 3.5 mph SSW5.6 kmh SSW 3.5 mph5.6 kmh 30.14 in1020.7 mb - 0.00 in0.0 mm 0.01 in0.3 mm
07:30 PM 63.3°F17.4°C 54.5°F12.5°C 73% 1.2 mph SSW1.9 kmh SSW 1.2 mph1.9 kmh 30.15 in1021.0 mb - 0.00 in0.0 mm 0.01 in0.3 mm
07:40 PM 63.1°F17.3°C 54.3°F12.4°C 73% 6.9 mph S11.1 kmh S 10.4 mph16.7 kmh 30.15 in1021.0 mb - 0.00 in0.0 mm 0.01 in0.3 mm
07:50 PM 63.5°F17.5°C 53.9°F12.2°C 71% 2.3 mph S3.7 kmh S 3.5 mph5.6 kmh 30.15 in1021.0 mb - 0.00 in0.0 mm 0.01 in0.3 mm
08:00 PM 63.3°F17.4°C 54.1°F12.3°C 72% 3.5 mph SSW5.6 kmh SSW 3.5 mph5.6 kmh 30.15 in1021.0 mb - 0.00 in0.0 mm 0.01 in0.3 mm
08:10 PM 63.1°F17.3°C 54.7°F12.6°C 74% Calm Calm -- 30.15 in1021.0 mb - 0.00 in0.0 mm 0.01 in0.3 mm
08:20 PM 62.9°F17.2°C 53.7°F12.1°C 72% 3.5 mph SSW5.6 kmh SSW 3.5 mph5.6 kmh 30.16 in1021.3 mb - 0.00 in0.0 mm 0.01 in0.3 mm
08:30 PM 62.8°F17.1°C 53.6°F12.0°C 72% 2.3 mph SSW3.7 kmh SSW 3.5 mph5.6 kmh 30.16 in1021.3 mb - 0.00 in0.0 mm 0.01 in0.3 mm
08:40 PM 62.6°F17.0°C 54.2°F12.3°C 74% 1.2 mph SSW1.9 kmh SSW 2.3 mph3.7 kmh 30.16 in1021.3 mb - 0.00 in0.0 mm 0.01 in0.3 mm
08:50 PM 62.5°F16.9°C 53.4°F11.9°C 72% 2.3 mph S3.7 kmh S 3.5 mph5.6 kmh 30.16 in1021.3 mb - 0.00 in0.0 mm 0.01 in0.3 mm
09:00 PM 62.3°F16.8°C 53.5°F11.9°C 73% Calm Calm -- 30.16 in1021.3 mb - 0.00 in0.0 mm 0.01 in0.3 mm
09:10 PM 62.3°F16.8°C 53.2°F11.8°C 72% Calm Calm -- 30.17 in1021.7 mb - 0.00 in0.0 mm 0.01 in0.3 mm
09:20 PM 62.0°F16.7°C 53.3°F11.8°C 73% 1.2 mph SSW1.9 kmh SSW 3.5 mph5.6 kmh 30.17 in1021.7 mb - 0.00 in0.0 mm 0.01 in0.3 mm
09:30 PM 62.3°F16.8°C 52.8°F11.6°C 71% 3.5 mph S5.6 kmh S 4.6 mph7.4 kmh 30.17 in1021.7 mb - 0.00 in0.0 mm 0.01 in0.3 mm
09:40 PM 62.2°F16.8°C 52.7°F11.5°C 71% Calm Calm -- 30.17 in1021.7 mb - 0.00 in0.0 mm 0.01 in0.3 mm
09:50 PM 61.8°F16.6°C 52.7°F11.5°C 72% Calm Calm -- 30.17 in1021.7 mb - 0.00 in0.0 mm 0.01 in0.3 mm
10:00 PM 61.6°F16.4°C 53.3°F11.8°C 74% Calm Calm -- 30.17 in1021.7 mb - 0.00 in0.0 mm 0.01 in0.3 mm
10:10 PM 61.7°F16.5°C 52.9°F11.6°C 73% Calm Calm -- 30.18 in1022.0 mb - 0.00 in0.0 mm 0.01 in0.3 mm
10:20 PM 61.7°F16.5°C 52.6°F11.4°C 72% Calm Calm -- 30.17 in1021.7 mb - 0.00 in0.0 mm 0.01 in0.3 mm
10:30 PM 61.7°F16.5°C 52.6°F11.4°C 72% Calm Calm -- 30.17 in1021.7 mb - 0.00 in0.0 mm 0.01 in0.3 mm
10:40 PM 61.7°F16.5°C 52.2°F11.2°C 71% Calm Calm 4.6 mph7.4 kmh 30.17 in1021.7 mb - 0.00 in0.0 mm 0.01 in0.3 mm
10:50 PM 62.0°F16.7°C 53.6°F12.0°C 74% Calm Calm -- 30.17 in1021.7 mb - 0.00 in0.0 mm 0.01 in0.3 mm
11:00 PM 61.6°F16.4°C 52.9°F11.6°C 73% Calm Calm -- 30.17 in1021.7 mb - 0.00 in0.0 mm 0.01 in0.3 mm
11:10 PM 62.1°F16.7°C 52.6°F11.4°C 71% 1.2 mph SE1.9 kmh SE 2.3 mph3.7 kmh 30.17 in1021.7 mb - 0.00 in0.0 mm 0.01 in0.3 mm
11:20 PM 62.4°F16.9°C 52.9°F11.6°C 71% Calm Calm -- 30.17 in1021.7 mb - 0.00 in0.0 mm 0.01 in0.3 mm
11:30 PM 61.9°F16.6°C 53.2°F11.8°C 73% Calm Calm -- 30.17 in1021.7 mb - 0.00 in0.0 mm 0.01 in0.3 mm
11:40 PM 61.7°F16.5°C 53.0°F11.7°C 73% Calm Calm -- 30.17 in1021.7 mb - 0.00 in0.0 mm 0.01 in0.3 mm
11:50 PM 61.9°F16.6°C 52.8°F11.6°C 72% Calm Calm -- 30.17 in1021.7 mb - 0.00 in0.0 mm 0.01 in0.3 mm